Siliana, Tunisia

4:24 PM CET on July 30, 2016 (GMT +0100)
Jendouba | | Change Station

Elev 472 ft 36.48 °N, 8.80 °E | Updated 24 minutes ago

Clear
Clear
104 °F
Feels Like 109 °F
N
9
Wind Variable Wind from NE

Today
High -- | Low -- °F
--% Chance of Precip.
Yesterday
High -- | Low -- °F
Precip. -- in
Pressure 29.89 in
Visibility -9999.0 miles
Clouds
Heat Index 109 °F
Dew Point 66 °F
Humidity 29%
Rainfall 0.00 in
Snow Depth Not available.
5:28 AM 7:29 PM
Waning Crescent, 13% visible
METAR DTTN 301500Z 05008KT CAVOK 40/19 Q1012 SIROCCO
Pressure 29.89 in
Visibility -9999.0 miles
Clouds
Heat Index 109 °F
Dew Point 66 °F
Humidity 29%
Rainfall 0.00 in
Snow Depth Not available.
5:28 AM 7:29 PM
Waning Crescent, 13% visible
METAR DTTN 301500Z 05008KT CAVOK 40/19 Q1012 SIROCCO

10-Day Weather Forecast

No radar image for this location.
×

Almanac

Astronomy

Jul. 30, 2016 Rise Set
Actual Time
Civil Twilight
Nautical Twilight
Astronomical Twilight
Moon
Length of Visible Light
Length of Day
Tomorrow will be .
, % of the Moon is Illuminated

Today's Extremes

Country Highs Country Lows

Community

WunderPhotos

Upload Photos

1,928,585 photos uploaded!

WunderBlog® & News

Nearby

Air Quality

  Air Quality AQ Index Pollutant
Not available.

Snow Depth

Station Depth Elevation

Earthquake Activity

City Distance Mag. Time & Date
Minimum magnitude displayed is 2.5.

Coastal Water Temperatures

Place Temperature

Stations

Nearby Weather Stations

Station Location Temp. Windchill Dew Point Humidity Wind Precip. Elev Updated Type